createdAt,value
2023-01-17T00:03:20.305Z,96049.05
2023-01-17T00:07:43.574Z,96043.05
2023-01-17T00:12:07.514Z,96040.91
2023-01-17T00:16:32.522Z,96041.64
2023-01-17T00:20:56.175Z,96048.77
2023-01-17T00:25:19.817Z,96049.11
2023-01-17T00:29:13.407Z,96052.76
2023-01-17T00:33:15.909Z,96049.12
2023-01-17T00:37:19.852Z,96042.77
2023-01-17T00:41:27.045Z,96048.94
2023-01-17T00:45:28.804Z,96047.81
2023-01-17T00:49:41.181Z,96057.30
2023-01-17T00:54:04.851Z,96060.98
2023-01-17T00:58:29.326Z,96051.73
2023-01-17T01:02:51.597Z,96049.77
2023-01-17T01:07:13.974Z,96050.33
2023-01-17T01:11:36.259Z,96049.11
2023-01-17T01:15:59.599Z,96040.48
2023-01-17T01:20:21.862Z,96034.22
2023-01-17T01:24:45.512Z,96023.62
2023-01-17T01:29:10.733Z,96011.17
2023-01-17T01:33:20.455Z,96005.84
2023-01-17T01:37:44.503Z,96003.17
2023-01-17T01:42:08.210Z,96011.62
2023-01-17T01:46:32.166Z,96022.59
2023-01-17T01:50:57.079Z,96009.44
2023-01-17T01:55:22.066Z,96020.77
2023-01-17T01:59:47.056Z,96012.75
2023-01-17T02:04:24.014Z,96005.55
2023-01-17T02:08:50.905Z,96006.63
2023-01-17T02:13:19.357Z,96001.99
2023-01-17T02:17:50.711Z,95994.68
2023-01-17T02:22:22.150Z,95991.45
2023-01-17T02:26:48.835Z,95995.14
2023-01-17T02:31:27.960Z,95988.91
2023-01-17T02:35:56.385Z,95981.52
2023-01-17T02:40:14.867Z,95981.45
2023-01-17T02:44:39.996Z,95983.66
2023-01-17T02:49:04.879Z,95988.57
2023-01-17T02:53:39.238Z,95986.24
2023-01-17T02:58:04.408Z,95978.08
2023-01-17T03:03:01.797Z,95974.86
2023-01-17T03:07:08.392Z,95971.53
2023-01-17T03:11:32.436Z,95977.13
2023-01-17T03:15:56.533Z,95974.39
2023-01-17T03:20:22.650Z,95976.27
2023-01-17T03:24:47.937Z,95976.45
2023-01-17T03:29:14.061Z,95979.70
2023-01-17T03:33:39.478Z,95973.11
2023-01-17T03:38:03.839Z,95976.55
2023-01-17T03:42:27.822Z,95978.31
2023-01-17T03:47:00.440Z,95981.02
2023-01-17T03:51:24.358Z,95978.35
2023-01-17T03:55:48.908Z,95974.52
2023-01-17T04:00:12.590Z,95968.80
2023-01-17T04:04:36.633Z,95966.86
2023-01-17T04:09:00.794Z,95960.44
2023-01-17T04:13:24.639Z,95953.00
2023-01-17T04:17:55.123Z,95943.53
2023-01-17T04:22:21.216Z,95924.50
2023-01-17T04:26:45.150Z,95914.37
2023-01-17T04:31:10.322Z,95910.83
2023-01-17T04:35:34.325Z,95919.52
2023-01-17T04:39:59.302Z,95919.03
2023-01-17T04:44:25.028Z,95916.88
2023-01-17T04:48:49.937Z,95909.63
2023-01-17T04:53:13.864Z,95904.08
2023-01-17T04:57:38.796Z,95900.04
2023-01-17T05:02:08.649Z,95892.48
2023-01-17T05:06:32.677Z,95889.31
2023-01-17T05:10:57.837Z,95882.54
2023-01-17T05:15:25.595Z,95884.86
2023-01-17T05:19:53.960Z,95889.56
2023-01-17T05:24:24.220Z,95888.54
2023-01-17T05:28:50.193Z,95881.88
2023-01-17T05:33:22.359Z,95883.00
2023-01-17T05:37:51.764Z,95884.64
2023-01-17T05:42:22.506Z,95884.67
2023-01-17T05:46:47.497Z,95874.10
2023-01-17T05:51:14.715Z,95877.63
2023-01-17T05:55:48.910Z,95870.27
2023-01-17T06:00:18.769Z,95873.93
2023-01-17T06:04:42.648Z,95870.70
2023-01-17T06:09:42.523Z,95868.96
2023-01-17T06:14:06.758Z,95866.53
2023-01-17T06:18:31.726Z,95867.87
2023-01-17T06:22:55.837Z,95870.52
2023-01-17T06:27:20.143Z,95871.33
2023-01-17T06:31:46.624Z,95870.45
2023-01-17T06:35:50.363Z,95874.72
2023-01-17T06:40:14.261Z,95876.04
2023-01-17T06:44:41.216Z,95886.69
2023-01-17T06:49:07.156Z,95889.77
2023-01-17T06:53:36.857Z,95898.29
2023-01-17T06:58:00.788Z,95899.38
2023-01-17T07:02:24.724Z,95904.35
2023-01-17T07:06:48.648Z,95910.66
2023-01-17T07:11:14.539Z,95910.55
2023-01-17T07:15:40.703Z,95903.66
2023-01-17T07:20:04.766Z,95902.44
2023-01-17T07:24:23.440Z,95899.67
2023-01-17T07:28:41.129Z,95903.83
2023-01-17T07:33:06.074Z,95900.85
2023-01-17T07:37:32.110Z,95905.65
2023-01-17T07:41:55.934Z,95911.66
2023-01-17T07:46:19.464Z,95911.61
2023-01-17T07:50:50.511Z,95914.06
2023-01-17T07:55:15.612Z,95919.40
2023-01-17T07:59:38.438Z,95922.98
2023-01-17T08:04:03.524Z,95926.11
2023-01-17T08:08:36.539Z,95933.36
2023-01-17T08:13:01.653Z,95945.83
2023-01-17T08:17:54.365Z,95946.45
2023-01-17T08:22:24.388Z,95941.25
2023-01-17T08:26:57.523Z,95947.37
2023-01-17T08:31:31.164Z,95956.69
2023-01-17T08:36:09.270Z,95967.12
2023-01-17T08:40:33.525Z,95975.56
2023-01-17T08:45:09.255Z,95979.68
2023-01-17T08:49:38.034Z,95984.23
2023-01-17T08:53:59.514Z,95992.41
2023-01-17T08:58:23.438Z,95995.03
2023-01-17T09:02:55.186Z,96002.45
2023-01-17T09:07:19.446Z,96005.41
2023-01-17T09:11:42.077Z,96008.16
2023-01-17T09:16:06.137Z,96003.74
2023-01-17T09:20:30.422Z,96013.74
2023-01-17T09:24:55.487Z,96013.73
2023-01-17T09:29:19.540Z,96014.46
2023-01-17T09:33:43.740Z,96018.05
2023-01-17T09:38:07.843Z,96024.45
2023-01-17T09:42:59.018Z,96014.70
2023-01-17T09:47:22.960Z,96002.04
2023-01-17T09:52:01.893Z,96006.95
2023-01-17T09:56:26.834Z,95996.87
2023-01-17T10:00:53.082Z,95996.92
2023-01-17T10:05:18.337Z,95992.45
2023-01-17T10:09:51.022Z,95986.48
2023-01-17T10:14:23.767Z,95991.70
2023-01-17T10:18:58.317Z,95986.35
2023-01-17T10:23:38.377Z,95985.21
2023-01-17T10:28:04.996Z,96001.77
2023-01-17T10:32:36.521Z,96027.75
2023-01-17T10:37:01.869Z,96032.98
2023-01-17T10:41:31.448Z,96044.56
2023-01-17T10:46:07.177Z,96053.46
2023-01-17T10:50:31.101Z,96067.70
2023-01-17T10:55:04.447Z,96084.66
2023-01-17T10:59:28.348Z,96095.66
2023-01-17T11:03:52.409Z,96104.30
2023-01-17T11:08:19.257Z,96094.27
2023-01-17T11:12:46.078Z,96085.77
2023-01-17T11:17:11.103Z,96081.67
2023-01-17T11:21:34.996Z,96082.00
2023-01-17T11:25:58.957Z,96066.31
2023-01-17T11:30:31.756Z,96054.46
2023-01-17T11:34:57.333Z,96064.78
2023-01-17T11:39:21.601Z,96067.33
2023-01-17T11:44:03.602Z,96064.59
2023-01-17T11:48:29.618Z,96060.95
2023-01-17T11:52:59.612Z,96051.88
2023-01-17T11:57:26.452Z,96040.47
2023-01-17T12:02:01.548Z,96031.14
2023-01-17T12:06:57.580Z,96031.93
2023-01-17T12:11:33.882Z,96034.55
2023-01-17T12:16:10.103Z,96028.84
2023-01-17T12:20:32.978Z,96013.14
2023-01-17T12:25:15.346Z,96005.67
2023-01-17T12:30:00.259Z,96014.50
2023-01-17T12:34:52.888Z,96021.42
2023-01-17T12:39:17.008Z,96019.17
2023-01-17T12:43:43.650Z,96026.40
2023-01-17T12:47:47.240Z,96028.39
2023-01-17T12:52:15.294Z,96042.07
2023-01-17T12:56:49.152Z,96059.23
2023-01-17T13:01:21.694Z,96068.72
2023-01-17T13:05:45.697Z,96084.29
2023-01-17T13:10:09.565Z,96098.42
2023-01-17T13:14:34.478Z,96099.89
2023-01-17T13:18:59.384Z,96105.02
2023-01-17T13:23:23.348Z,96115.05
2023-01-17T13:27:53.413Z,96128.36
2023-01-17T13:32:23.213Z,96127.13
2023-01-17T13:36:55.989Z,96136.08
2023-01-17T13:41:22.606Z,96146.29
2023-01-17T13:45:26.252Z,96146.88
2023-01-17T13:49:52.892Z,96147.71
2023-01-17T13:54:14.727Z,96144.84
2023-01-17T13:58:38.621Z,96137.95
2023-01-17T14:03:14.597Z,96146.95
2023-01-17T14:07:38.503Z,96154.39
2023-01-17T14:12:05.292Z,96142.26
2023-01-17T14:16:29.442Z,96149.98
2023-01-17T14:20:53.393Z,96157.82
2023-01-17T14:25:17.432Z,96157.82
2023-01-17T14:29:41.406Z,96165.02
2023-01-17T14:34:03.677Z,96177.27
2023-01-17T14:38:31.435Z,96185.67
2023-01-17T14:42:56.476Z,96186.41
2023-01-17T14:47:21.709Z,96182.97
2023-01-17T14:51:40.226Z,96157.97
2023-01-17T14:56:04.154Z,96138.48
2023-01-17T15:00:51.159Z,96137.33
2023-01-17T15:05:28.262Z,96129.08
2023-01-17T15:09:52.109Z,96116.04
2023-01-17T15:14:16.353Z,96097.38
2023-01-17T15:18:55.239Z,96100.36
2023-01-17T15:23:39.286Z,96082.14
2023-01-17T15:28:03.355Z,96078.02
2023-01-17T15:32:27.196Z,96074.04
2023-01-17T15:36:53.849Z,96067.77
2023-01-17T15:40:57.320Z,96059.00
2023-01-17T15:45:36.044Z,96060.08
2023-01-17T15:50:06.206Z,96068.28
2023-01-17T15:54:30.348Z,96070.64
2023-01-17T15:59:24.436Z,96075.08
2023-01-17T16:03:58.336Z,96075.14
2023-01-17T16:08:22.284Z,96079.25
2023-01-17T16:12:46.145Z,96084.45
2023-01-17T16:17:13.048Z,96079.26
2023-01-17T16:21:37.602Z,96080.79
2023-01-17T16:25:56.210Z,96077.30
2023-01-17T16:30:12.698Z,96076.56
2023-01-17T16:34:36.536Z,96080.81
2023-01-17T16:39:01.169Z,96080.67
2023-01-17T16:43:27.161Z,96079.20
2023-01-17T16:47:51.395Z,96079.34
2023-01-17T16:52:15.624Z,96080.53
2023-01-17T16:56:39.510Z,96085.25
2023-01-17T17:01:03.755Z,96082.58
2023-01-17T17:05:27.876Z,96070.67
2023-01-17T17:09:51.826Z,96073.51
2023-01-17T17:14:15.686Z,96075.73
2023-01-17T17:18:40.618Z,96071.33
2023-01-17T17:23:06.403Z,96062.76
2023-01-17T17:27:32.482Z,96054.38
2023-01-17T17:32:05.580Z,96047.73
2023-01-17T17:36:32.433Z,96053.14
2023-01-17T17:40:56.504Z,96049.11
2023-01-17T17:45:40.380Z,96052.19
2023-01-17T17:50:24.326Z,96048.15
2023-01-17T17:54:48.246Z,96053.78
2023-01-17T17:59:12.067Z,96051.03
2023-01-17T18:03:36.030Z,96048.91
2023-01-17T18:08:00.057Z,96038.63
2023-01-17T18:12:23.908Z,96035.10
2023-01-17T18:16:47.861Z,96032.09
2023-01-17T18:21:11.737Z,96034.70
2023-01-17T18:25:36.530Z,96032.30
2023-01-17T18:30:00.734Z,96042.16
2023-01-17T18:34:24.667Z,96041.65
2023-01-17T18:38:49.716Z,96034.98
2023-01-17T18:43:07.986Z,96033.59
2023-01-17T18:47:33.852Z,96020.24
2023-01-17T18:51:57.901Z,96001.27
2023-01-17T18:56:14.781Z,95992.57
2023-01-17T19:00:38.760Z,95996.66
2023-01-17T19:05:02.678Z,95979.55
2023-01-17T19:09:26.667Z,95970.94
2023-01-17T19:13:50.666Z,95956.98
2023-01-17T19:18:14.680Z,95945.27
2023-01-17T19:22:38.623Z,95932.75
2023-01-17T19:27:02.674Z,95916.67
2023-01-17T19:31:26.621Z,95899.27
2023-01-17T19:35:49.508Z,95887.37
2023-01-17T19:40:13.510Z,95876.32
2023-01-17T19:44:37.396Z,95871.34
2023-01-17T19:49:00.333Z,95863.74
2023-01-17T19:53:24.417Z,95854.54
2023-01-17T19:57:48.824Z,95851.45
2023-01-17T20:02:32.963Z,95842.75
2023-01-17T20:06:57.025Z,95828.09
2023-01-17T20:11:13.603Z,95819.25
2023-01-17T20:15:37.503Z,95811.02
2023-01-17T20:20:56.254Z,95802.51
2023-01-17T20:25:22.309Z,95799.45
2023-01-17T20:29:46.147Z,95786.72
2023-01-17T20:34:13.177Z,95774.11
2023-01-17T20:38:37.078Z,95754.55
2023-01-17T20:43:01.809Z,95744.15
2023-01-17T20:47:26.542Z,95741.73
2023-01-17T20:51:50.366Z,95728.88
2023-01-17T20:56:14.333Z,95721.14
